createdAt,value
2022-08-16T00:01:34.160Z,9.10
2022-08-16T00:04:09.641Z,9.50
2022-08-16T00:06:39.613Z,10.20
2022-08-16T00:09:10.808Z,9.40
2022-08-16T00:11:41.396Z,9.70
2022-08-16T00:14:19.004Z,9.10
2022-08-16T00:17:00.718Z,9.60
2022-08-16T00:19:41.610Z,9.60
2022-08-16T00:24:46.938Z,10.50
2022-08-16T00:27:15.235Z,10.00
2022-08-16T00:29:45.724Z,9.80
2022-08-16T00:32:18.068Z,9.10
2022-08-16T00:34:53.106Z,9.00
2022-08-16T00:37:57.806Z,9.80
2022-08-16T00:40:33.377Z,9.90
2022-08-16T00:43:05.179Z,9.50
2022-08-16T00:46:33.514Z,9.70
2022-08-16T00:51:25.719Z,9.40
2022-08-16T00:53:58.941Z,9.30
2022-08-16T00:56:58.379Z,9.70
2022-08-16T00:59:23.982Z,10.40
2022-08-16T01:01:53.496Z,9.90
2022-08-16T01:04:25.744Z,10.40
2022-08-16T01:07:01.736Z,10.40
2022-08-16T01:13:41.901Z,10.40
2022-08-16T01:16:23.325Z,10.90
2022-08-16T01:19:02.557Z,9.80
2022-08-16T01:21:53.522Z,10.30
2022-08-16T01:24:55.697Z,10.10
2022-08-16T01:28:02.207Z,9.40
2022-08-16T01:30:39.810Z,11.20
2022-08-16T01:33:14.652Z,10.70
2022-08-16T01:36:01.834Z,10.10
2022-08-16T01:43:28.619Z,9.50
2022-08-16T01:46:29.350Z,10.20
2022-08-16T01:48:59.252Z,10.10
2022-08-16T01:51:29.491Z,10.80
2022-08-16T01:53:59.009Z,11.30
2022-08-16T01:56:30.167Z,11.20
2022-08-16T01:59:01.325Z,9.80
2022-08-16T02:01:31.946Z,12.30
2022-08-16T02:04:10.209Z,10.90
2022-08-16T02:06:45.917Z,12.90
2022-08-16T02:09:20.643Z,10.50
2022-08-16T02:11:54.963Z,11.30
2022-08-16T02:14:27.342Z,10.20
2022-08-16T02:16:59.001Z,12.70
2022-08-16T02:19:58.881Z,11.80
2022-08-16T02:22:34.603Z,11.50
2022-08-16T02:25:14.815Z,14.20
2022-08-16T02:27:50.889Z,13.30
2022-08-16T02:30:36.746Z,12.50
2022-08-16T02:33:12.828Z,12.20
2022-08-16T02:35:53.907Z,10.70
2022-08-16T02:38:31.598Z,11.50
2022-08-16T02:41:07.418Z,13.60
2022-08-16T02:43:38.376Z,12.50
2022-08-16T02:46:08.561Z,12.30
2022-08-16T02:48:38.932Z,12.60
2022-08-16T02:51:10.835Z,13.80
2022-08-16T02:53:45.923Z,13.90
2022-08-16T02:56:16.109Z,12.90
2022-08-16T02:58:50.873Z,14.30
2022-08-16T03:01:36.738Z,11.60
2022-08-16T03:04:39.858Z,11.20
2022-08-16T03:06:59.291Z,13.70
2022-08-16T03:09:41.249Z,13.30
2022-08-16T03:12:16.712Z,12.80
2022-08-16T03:14:46.883Z,12.90
2022-08-16T03:17:16.540Z,13.00
2022-08-16T03:19:48.491Z,13.60
2022-08-16T03:22:32.440Z,12.40
2022-08-16T03:25:08.873Z,11.40
2022-08-16T03:27:41.138Z,11.40
2022-08-16T03:30:18.924Z,12.80
2022-08-16T03:32:52.211Z,13.60
2022-08-16T03:35:32.416Z,13.50
2022-08-16T03:38:04.280Z,13.10
2022-08-16T03:40:53.734Z,12.10
2022-08-16T03:43:24.540Z,11.50
2022-08-16T03:46:47.678Z,10.20
2022-08-16T03:49:05.132Z,11.20
2022-08-16T03:51:35.681Z,12.30
2022-08-16T03:54:12.296Z,13.00
2022-08-16T03:56:56.880Z,12.50
2022-08-16T03:59:30.304Z,11.80
2022-08-16T04:02:12.603Z,12.40
2022-08-16T04:04:51.354Z,11.80
2022-08-16T04:07:20.349Z,11.60
2022-08-16T04:09:49.278Z,13.20
2022-08-16T04:12:54.694Z,11.50
2022-08-16T04:15:08.479Z,13.20
2022-08-16T04:17:42.692Z,11.50
2022-08-16T04:20:23.639Z,10.20
2022-08-16T04:23:00.722Z,10.70
2022-08-16T04:25:29.872Z,10.30
2022-08-16T04:28:51.967Z,10.50
2022-08-16T04:30:50.520Z,9.90
2022-08-16T04:33:19.199Z,18.40
2022-08-16T04:35:58.255Z,12.50
2022-08-16T04:38:26.590Z,12.90
2022-08-16T04:40:55.812Z,11.10
2022-08-16T04:43:26.079Z,11.90
2022-08-16T04:46:00.396Z,12.60
2022-08-16T04:48:33.920Z,11.20
2022-08-16T04:51:12.093Z,11.10
2022-08-16T04:53:49.223Z,10.20
2022-08-16T04:56:19.918Z,10.40
2022-08-16T04:58:48.942Z,12.10
2022-08-16T05:01:18.197Z,12.60
2022-08-16T05:03:59.622Z,13.10
2022-08-16T05:06:42.350Z,13.90
2022-08-16T05:09:28.576Z,14.30
2022-08-16T05:11:58.850Z,14.70
2022-08-16T05:14:46.033Z,16.10
2022-08-16T05:17:24.668Z,17.30
2022-08-16T05:19:57.460Z,16.70
2022-08-16T05:22:28.511Z,16.20
2022-08-16T05:24:58.027Z,16.20
2022-08-16T05:27:27.520Z,16.20
2022-08-16T05:30:00.879Z,15.70
2022-08-16T05:32:47.294Z,15.70
2022-08-16T05:35:16.158Z,18.40
2022-08-16T05:37:59.698Z,17.60
2022-08-16T05:40:28.258Z,17.70
2022-08-16T05:42:56.459Z,15.30
2022-08-16T05:45:25.970Z,14.00
2022-08-16T05:48:00.187Z,14.30
2022-08-16T05:50:53.086Z,20.20
2022-08-16T05:53:24.175Z,22.60
2022-08-16T05:56:10.885Z,22.30
2022-08-16T05:58:47.621Z,20.10
2022-08-16T06:01:17.290Z,19.60
2022-08-16T06:03:48.200Z,19.20
2022-08-16T06:06:28.038Z,19.50
2022-08-16T06:08:57.764Z,18.40
2022-08-16T06:11:26.290Z,19.70
2022-08-16T06:14:00.285Z,19.60
2022-08-16T06:16:35.627Z,19.90
2022-08-16T06:19:05.000Z,21.30
2022-08-16T06:21:36.941Z,20.30
2022-08-16T06:24:54.476Z,20.30
2022-08-16T06:26:57.959Z,18.60
2022-08-16T06:29:27.278Z,19.90
2022-08-16T06:31:55.228Z,19.60
2022-08-16T06:34:55.421Z,21.00
2022-08-16T06:37:14.761Z,19.70
2022-08-16T06:39:49.416Z,20.60
2022-08-16T06:42:39.591Z,20.40
2022-08-16T06:45:45.599Z,20.10
2022-08-16T06:48:33.000Z,16.70
2022-08-16T06:51:06.038Z,16.40
2022-08-16T06:53:36.819Z,16.60
2022-08-16T06:56:14.769Z,16.40
2022-08-16T06:59:09.005Z,17.00
2022-08-16T07:01:53.574Z,16.60
2022-08-16T07:04:32.075Z,16.50
2022-08-16T07:07:06.299Z,16.70
2022-08-16T07:09:38.594Z,16.80
2022-08-16T07:12:07.259Z,15.10
2022-08-16T07:14:37.491Z,14.90
2022-08-16T07:17:08.219Z,13.40
2022-08-16T07:20:03.013Z,13.60
2022-08-16T07:22:38.919Z,12.00
2022-08-16T07:25:16.074Z,11.80
2022-08-16T07:27:45.205Z,11.60
2022-08-16T07:30:45.231Z,11.10
2022-08-16T07:33:09.572Z,11.40
2022-08-16T07:35:44.378Z,10.50
2022-08-16T07:38:20.100Z,11.60
2022-08-16T07:41:10.145Z,11.60
2022-08-16T07:43:43.430Z,11.10
2022-08-16T07:46:37.918Z,11.20
2022-08-16T07:49:03.150Z,11.00
2022-08-16T07:51:37.170Z,10.00
2022-08-16T07:54:10.574Z,10.90
2022-08-16T07:56:44.455Z,10.80
2022-08-16T07:59:12.934Z,11.00
2022-08-16T08:01:42.492Z,10.70
2022-08-16T08:04:13.426Z,9.90
2022-08-16T08:06:45.289Z,9.90
2022-08-16T08:09:18.305Z,10.20
2022-08-16T08:11:59.520Z,10.00
2022-08-16T08:14:33.063Z,10.10
2022-08-16T08:17:01.970Z,10.40
2022-08-16T08:19:35.085Z,9.90
2022-08-16T08:22:06.564Z,10.50
2022-08-16T08:24:44.194Z,9.90
2022-08-16T08:27:22.978Z,10.60
2022-08-16T08:30:49.721Z,9.30
2022-08-16T08:32:57.293Z,10.30
2022-08-16T08:35:30.216Z,10.70
2022-08-16T08:38:00.115Z,10.20
2022-08-16T08:40:30.659Z,10.10
2022-08-16T08:43:12.243Z,9.90
2022-08-16T08:45:55.764Z,11.30
2022-08-16T08:48:33.259Z,10.70
2022-08-16T08:51:12.865Z,10.50
2022-08-16T08:53:57.276Z,9.70
2022-08-16T08:56:32.204Z,10.40
2022-08-16T08:59:13.066Z,10.60
2022-08-16T09:01:56.983Z,10.30
2022-08-16T09:04:28.684Z,11.10
2022-08-16T09:06:58.445Z,10.00
2022-08-16T09:09:33.575Z,10.10
2022-08-16T09:12:06.897Z,10.80
2022-08-16T09:14:58.942Z,10.80
2022-08-16T09:17:49.249Z,10.00
2022-08-16T09:20:19.907Z,10.50
2022-08-16T09:22:51.349Z,10.10
2022-08-16T09:25:25.944Z,11.20
2022-08-16T09:28:09.269Z,10.70
2022-08-16T09:30:43.974Z,10.60
2022-08-16T09:33:19.743Z,11.00
2022-08-16T09:35:53.588Z,10.70
2022-08-16T09:38:32.424Z,10.80
2022-08-16T09:41:06.730Z,9.90
2022-08-16T09:43:57.977Z,10.50
2022-08-16T09:46:48.237Z,11.00
2022-08-16T09:49:15.655Z,11.00
2022-08-16T09:51:44.089Z,9.70
2022-08-16T09:54:17.201Z,10.20
2022-08-16T09:56:52.287Z,9.70
2022-08-16T09:59:23.840Z,10.10
2022-08-16T10:01:54.514Z,10.20
2022-08-16T10:04:31.732Z,10.00
2022-08-16T10:07:15.608Z,9.90
2022-08-16T10:09:54.864Z,9.90
2022-08-16T10:12:47.049Z,10.00
2022-08-16T10:15:24.853Z,9.10
2022-08-16T10:18:01.493Z,9.70
2022-08-16T10:20:34.861Z,9.50
2022-08-16T10:23:07.112Z,8.30
2022-08-16T10:27:19.648Z,9.50
2022-08-16T10:28:31.935Z,9.30
2022-08-16T10:31:03.595Z,8.50
2022-08-16T10:33:34.278Z,9.70
2022-08-16T10:36:07.563Z,7.80
2022-08-16T10:38:38.534Z,8.10
2022-08-16T10:41:08.093Z,7.30
2022-08-16T10:43:40.164Z,8.40
2022-08-16T10:46:33.606Z,8.30
2022-08-16T10:49:05.289Z,7.90
2022-08-16T10:52:00.746Z,6.80
2022-08-16T10:54:29.667Z,8.50
2022-08-16T10:57:00.458Z,9.20
2022-08-16T10:59:38.140Z,8.80
2022-08-16T11:02:57.652Z,8.00
2022-08-16T11:05:06.364Z,7.30
2022-08-16T11:07:43.430Z,7.80
2022-08-16T11:10:20.894Z,6.40
2022-08-16T11:16:00.926Z,6.30
2022-08-16T11:19:04.010Z,5.90
2022-08-16T11:21:28.672Z,5.40
2022-08-16T11:23:58.971Z,5.20
2022-08-16T11:26:28.687Z,5.80
2022-08-16T11:29:14.264Z,6.40
2022-08-16T11:31:45.871Z,5.90
2022-08-16T11:34:22.515Z,5.90
2022-08-16T11:36:59.539Z,6.20
2022-08-16T11:39:30.720Z,5.30
2022-08-16T11:41:59.961Z,5.40
2022-08-16T11:44:51.942Z,5.50
2022-08-16T11:47:15.834Z,5.90
2022-08-16T11:49:43.890Z,5.60
2022-08-16T11:52:12.074Z,5.70
2022-08-16T11:54:40.467Z,5.60
2022-08-16T11:57:09.211Z,6.40
2022-08-16T11:59:39.851Z,6.10
2022-08-16T12:02:32.068Z,6.60
2022-08-16T12:04:57.865Z,6.80
2022-08-16T12:07:25.933Z,6.50
2022-08-16T12:09:54.492Z,7.10
2022-08-16T12:12:23.709Z,7.20
2022-08-16T12:14:59.838Z,8.50
2022-08-16T12:17:31.674Z,8.20
2022-08-16T12:20:02.125Z,9.20
2022-08-16T12:22:39.671Z,9.00
2022-08-16T12:25:14.224Z,9.00
2022-08-16T12:27:44.679Z,9.20
2022-08-16T12:30:27.033Z,9.30
2022-08-16T12:33:03.119Z,9.10
2022-08-16T12:35:33.168Z,9.60
2022-08-16T12:38:37.805Z,10.20
2022-08-16T12:40:53.066Z,8.70
2022-08-16T12:45:56.124Z,8.40
2022-08-16T12:48:48.748Z,8.40
2022-08-16T12:51:23.915Z,9.00
2022-08-16T12:53:54.572Z,7.70
2022-08-16T12:56:26.140Z,8.10
2022-08-16T12:58:56.275Z,8.60
2022-08-16T13:01:29.159Z,9.00
2022-08-16T13:04:11.895Z,8.60
2022-08-16T13:06:48.768Z,8.00
2022-08-16T13:09:26.365Z,8.70
2022-08-16T13:12:07.562Z,9.60
2022-08-16T13:14:42.292Z,9.60
2022-08-16T13:17:18.775Z,9.80
2022-08-16T13:20:08.576Z,9.10
2022-08-16T13:25:20.782Z,9.20
2022-08-16T13:28:01.680Z,9.40
2022-08-16T13:30:45.556Z,9.90
2022-08-16T13:33:19.030Z,10.30
2022-08-16T13:35:55.397Z,11.40
2022-08-16T13:38:31.478Z,10.00
2022-08-16T13:41:08.949Z,9.20
2022-08-16T13:43:38.395Z,9.70
2022-08-16T13:46:07.355Z,9.50
2022-08-16T13:48:42.567Z,9.40
2022-08-16T13:51:17.062Z,8.70
2022-08-16T13:53:54.514Z,9.40
2022-08-16T13:56:38.140Z,9.20
2022-08-16T13:59:19.431Z,9.00
2022-08-16T14:01:55.607Z,8.60
2022-08-16T14:04:31.350Z,9.60
2022-08-16T14:07:01.700Z,9.30
2022-08-16T14:09:32.216Z,8.90
2022-08-16T14:12:04.444Z,8.40
2022-08-16T14:14:37.844Z,9.40
2022-08-16T14:17:05.928Z,9.20
2022-08-16T14:19:44.556Z,9.60
2022-08-16T14:22:31.468Z,9.80
2022-08-16T14:25:10.102Z,9.10
2022-08-16T14:30:15.488Z,9.90
2022-08-16T14:32:49.710Z,9.90
2022-08-16T14:35:29.214Z,9.70
2022-08-16T14:38:05.611Z,9.50
2022-08-16T14:40:34.098Z,9.60
2022-08-16T14:43:07.308Z,9.50
2022-08-16T14:45:37.043Z,9.30
2022-08-16T14:48:05.534Z,10.40
2022-08-16T14:50:33.929Z,9.20
2022-08-16T14:53:06.420Z,8.90
2022-08-16T14:55:37.165Z,8.90
2022-08-16T14:58:10.441Z,8.90
2022-08-16T15:00:50.167Z,8.70
2022-08-16T15:03:21.930Z,8.40
2022-08-16T15:05:53.900Z,8.40
2022-08-16T15:08:36.194Z,8.50
2022-08-16T15:11:07.764Z,8.60
2022-08-16T15:13:36.568Z,8.50
2022-08-16T15:16:05.284Z,8.80
2022-08-16T15:18:33.640Z,8.50
2022-08-16T15:21:04.144Z,8.60
2022-08-16T15:23:34.086Z,9.20
2022-08-16T15:26:04.000Z,9.00
2022-08-16T15:28:36.784Z,9.20
2022-08-16T15:31:09.982Z,9.10
2022-08-16T15:33:51.015Z,8.50
2022-08-16T15:36:26.439Z,8.40
2022-08-16T15:39:07.743Z,8.40
2022-08-16T15:41:46.938Z,8.20
2022-08-16T15:44:22.214Z,8.10
2022-08-16T15:46:55.750Z,8.30
2022-08-16T15:49:34.602Z,8.30
2022-08-16T15:52:10.386Z,8.90
2022-08-16T15:54:52.616Z,7.30
2022-08-16T15:57:24.778Z,6.00
2022-08-16T15:59:57.781Z,5.80
2022-08-16T16:02:41.037Z,5.90
2022-08-16T16:05:10.206Z,5.80
2022-08-16T16:07:40.742Z,5.70
2022-08-16T16:10:13.287Z,6.00
2022-08-16T16:12:53.575Z,5.80
2022-08-16T16:15:25.825Z,5.60
2022-08-16T16:17:58.239Z,5.90
2022-08-16T16:20:28.952Z,6.40
2022-08-16T16:23:01.256Z,5.50
2022-08-16T16:25:30.149Z,5.80
2022-08-16T16:28:00.763Z,5.90
2022-08-16T16:30:33.284Z,6.00
2022-08-16T16:33:05.832Z,6.50
2022-08-16T16:35:37.393Z,6.20
2022-08-16T16:38:07.795Z,6.60
2022-08-16T16:40:46.407Z,6.20
2022-08-16T16:43:26.103Z,6.60
2022-08-16T16:46:00.348Z,6.40
2022-08-16T16:48:35.276Z,6.70
2022-08-16T16:51:09.409Z,6.70
2022-08-16T16:53:42.234Z,6.50
2022-08-16T16:56:19.834Z,7.20
2022-08-16T16:58:57.761Z,7.10
2022-08-16T17:01:50.151Z,7.40
2022-08-16T17:04:31.387Z,7.00
2022-08-16T17:07:03.875Z,7.30
2022-08-16T17:09:40.140Z,7.90
2022-08-16T17:12:14.528Z,8.10
2022-08-16T17:14:55.253Z,7.30
2022-08-16T17:17:29.673Z,8.10
2022-08-16T17:19:59.182Z,7.70
2022-08-16T17:22:32.793Z,8.70
2022-08-16T17:25:01.310Z,7.80
2022-08-16T17:27:32.622Z,8.50
2022-08-16T17:30:15.971Z,7.90
2022-08-16T17:32:50.548Z,8.80
2022-08-16T17:35:34.226Z,9.00
2022-08-16T17:38:05.983Z,9.20
2022-08-16T17:40:49.246Z,8.10
2022-08-16T17:43:34.160Z,8.20
2022-08-16T17:46:05.690Z,8.70
2022-08-16T17:48:54.318Z,8.30
2022-08-16T17:51:27.298Z,8.80
2022-08-16T17:53:55.409Z,8.30
2022-08-16T17:56:23.589Z,9.00
2022-08-16T17:58:52.052Z,9.40
2022-08-16T18:01:25.633Z,8.70
2022-08-16T18:04:06.638Z,10.80
2022-08-16T18:06:39.669Z,10.90
2022-08-16T18:09:08.825Z,10.60
2022-08-16T18:11:42.851Z,11.20
2022-08-16T18:14:13.022Z,10.30
2022-08-16T18:16:41.434Z,10.20
2022-08-16T18:19:10.730Z,11.20
2022-08-16T18:21:57.331Z,10.70
2022-08-16T18:24:29.700Z,12.10
2022-08-16T18:27:24.705Z,10.30
2022-08-16T18:29:47.856Z,10.30
2022-08-16T18:32:21.914Z,11.50
2022-08-16T18:34:55.732Z,11.00
2022-08-16T18:37:24.275Z,11.60
2022-08-16T18:39:52.362Z,12.60
2022-08-16T18:42:20.689Z,11.70
2022-08-16T18:44:49.303Z,11.70
2022-08-16T18:47:17.356Z,13.10
2022-08-16T18:49:45.485Z,11.80
2022-08-16T18:52:24.876Z,12.80
2022-08-16T18:55:01.839Z,12.40
2022-08-16T18:57:31.349Z,13.00
2022-08-16T18:59:59.429Z,13.10
2022-08-16T19:02:57.270Z,12.90
2022-08-16T19:05:21.956Z,12.10
2022-08-16T19:07:50.284Z,12.00
2022-08-16T19:10:19.987Z,12.70
2022-08-16T19:12:48.050Z,11.70
2022-08-16T19:15:20.479Z,12.80
2022-08-16T19:17:49.117Z,12.70
2022-08-16T19:20:20.901Z,11.20
2022-08-16T19:23:10.609Z,12.20
2022-08-16T19:25:47.155Z,10.90
2022-08-16T19:28:51.453Z,12.80
2022-08-16T19:31:14.986Z,13.70
2022-08-16T19:33:53.741Z,13.10
2022-08-16T19:36:31.479Z,13.20
2022-08-16T19:39:07.267Z,12.50
2022-08-16T19:41:39.708Z,11.20
2022-08-16T19:44:08.102Z,11.50
2022-08-16T19:46:37.772Z,11.60
2022-08-16T19:49:06.125Z,11.80
2022-08-16T19:51:34.195Z,11.30
2022-08-16T19:54:02.395Z,11.80
2022-08-16T19:56:30.400Z,12.30
2022-08-16T20:01:46.786Z,11.50
2022-08-16T20:04:15.010Z,11.10
2022-08-16T20:06:43.132Z,10.90
2022-08-16T20:09:14.713Z,11.40
2022-08-16T20:11:45.382Z,11.70
2022-08-16T20:14:24.009Z,12.10
2022-08-16T20:16:56.435Z,12.30
2022-08-16T20:19:27.739Z,12.60
2022-08-16T20:21:59.182Z,11.90
2022-08-16T20:24:34.802Z,11.60
2022-08-16T20:27:07.780Z,12.40
2022-08-16T20:29:38.647Z,12.30
2022-08-16T20:32:09.374Z,12.80
2022-08-16T20:34:38.314Z,11.40
2022-08-16T20:37:06.639Z,11.70
2022-08-16T20:39:34.704Z,12.30
2022-08-16T20:42:18.617Z,12.30
2022-08-16T20:44:46.803Z,11.80
2022-08-16T20:47:15.369Z,13.10
2022-08-16T20:49:43.485Z,12.50
2022-08-16T20:52:14.552Z,12.20
2022-08-16T20:54:43.945Z,10.70
2022-08-16T20:57:13.067Z,12.20
2022-08-16T20:59:41.529Z,10.50
2022-08-16T21:02:15.995Z,11.90
2022-08-16T21:04:44.131Z,12.90
2022-08-16T21:07:12.522Z,13.30
2022-08-16T21:09:40.556Z,13.60
2022-08-16T21:12:17.889Z,15.60
2022-08-16T21:14:46.237Z,14.10
2022-08-16T21:17:16.197Z,13.30
2022-08-16T21:19:45.266Z,13.80
2022-08-16T21:22:24.023Z,12.40
2022-08-16T21:24:53.905Z,15.20
2022-08-16T21:27:22.387Z,13.90
2022-08-16T21:29:55.758Z,14.40
2022-08-16T21:32:35.782Z,13.90
2022-08-16T21:35:10.689Z,14.10
2022-08-16T21:37:39.518Z,13.00
2022-08-16T21:40:09.255Z,13.30
2022-08-16T21:42:39.777Z,12.80
2022-08-16T21:45:09.210Z,15.10
2022-08-16T21:47:37.126Z,15.80
2022-08-16T21:50:05.471Z,14.40
2022-08-16T21:52:33.516Z,13.60
2022-08-16T21:55:01.445Z,15.30
2022-08-16T21:57:35.518Z,14.50
2022-08-16T22:00:15.998Z,12.40
2022-08-16T22:02:47.884Z,13.60
2022-08-16T22:05:18.621Z,14.40
2022-08-16T22:07:46.647Z,14.90
2022-08-16T22:11:04.841Z,13.60
2022-08-16T22:13:05.005Z,13.70
2022-08-16T22:15:33.029Z,14.40
2022-08-16T22:18:01.137Z,12.90
2022-08-16T22:20:29.810Z,13.00
2022-08-16T22:23:10.630Z,12.80
2022-08-16T22:25:42.349Z,13.10
2022-08-16T22:28:11.391Z,13.80
2022-08-16T22:30:40.324Z,12.40
2022-08-16T22:33:13.815Z,13.70
2022-08-16T22:35:48.641Z,14.00
2022-08-16T22:38:55.039Z,14.10
2022-08-16T22:41:06.021Z,14.20
2022-08-16T22:43:34.028Z,15.00
2022-08-16T22:46:02.100Z,14.20
2022-08-16T22:48:30.022Z,15.10
2022-08-16T22:50:57.953Z,17.50
2022-08-16T22:53:27.030Z,16.90
2022-08-16T22:55:55.154Z,17.30
2022-08-16T22:58:37.005Z,16.10
2022-08-16T23:01:08.016Z,16.10
2022-08-16T23:03:37.555Z,15.70
2022-08-16T23:06:06.483Z,14.20
2022-08-16T23:08:39.925Z,13.90
2022-08-16T23:11:11.478Z,15.20
2022-08-16T23:13:47.960Z,14.80
2022-08-16T23:16:33.022Z,14.20
2022-08-16T23:19:04.665Z,14.40
2022-08-16T23:21:33.457Z,15.20
2022-08-16T23:24:02.062Z,13.30
2022-08-16T23:26:44.500Z,14.90
2022-08-16T23:29:25.412Z,15.70
2022-08-16T23:31:58.251Z,15.70
2022-08-16T23:34:29.743Z,13.90
2022-08-16T23:36:57.893Z,14.40
2022-08-16T23:39:25.896Z,14.70
2022-08-16T23:41:53.918Z,14.00
2022-08-16T23:44:57.521Z,14.20
2022-08-16T23:47:09.768Z,16.70
2022-08-16T23:49:56.684Z,16.00
2022-08-16T23:52:42.235Z,15.10
2022-08-16T23:55:17.151Z,14.30
2022-08-16T23:57:46.344Z,13.60
